Time;durP1;ratioP1;P1;durP2;ratioP2;P2;SDS_P1;SDS_P2;PMS_P1;PMS_P2;Temp;Humidity;BMP_temperature;BMP_pressure;BME280_temperature;BME280_humidity;BME280_pressure;Samples;Min_cycle;Max_cycle;Signal;HPM_P1;HPM_P2
2021/12/08 00:01:29;;;;;;;53.53;35.45;;;1.40;98.30;;;;;;4160104;28;20298;-84
2021/12/08 00:03:34;;;;;;;54.15;35.00;;;1.50;98.30;;;;;;4162469;28;20258;-83
2021/12/08 00:05:38;;;;;;;55.92;34.30;;;1.50;98.30;;;;;;4163034;28;20214;-84
2021/12/08 00:07:42;;;;;;;56.80;36.85;;;1.40;98.30;;;;;;4162537;28;20321;-84
2021/12/08 00:10:00;;;;;;;52.22;35.42;;;1.40;98.30;;;;;;4153323;28;20219;-83
2021/12/08 00:14:24;;;;;;;60.80;38.15;;;1.40;98.30;;;;;;4160924;28;20243;-84
2021/12/08 00:16:27;;;;;;;54.53;35.75;;;1.50;98.30;;;;;;4162011;28;20752;-83
2021/12/08 00:18:34;;;;;;;64.10;38.25;;;1.40;98.30;;;;;;4165299;28;20311;-83
2021/12/08 00:20:38;;;;;;;50.47;34.38;;;1.50;98.30;;;;;;4165147;28;20195;-83
2021/12/08 00:22:41;;;;;;;62.83;39.15;;;1.40;98.30;;;;;;4165151;28;20213;-84
2021/12/08 00:24:44;;;;;;;58.53;35.35;;;1.40;98.30;;;;;;4165202;28;20211;-83
2021/12/08 00:26:47;;;;;;;54.17;36.08;;;1.40;98.30;;;;;;4165498;28;20234;-84
2021/12/08 00:28:50;;;;;;;59.55;38.05;;;1.40;98.30;;;;;;4165574;28;20285;-83
2021/12/08 00:30:55;;;;;;;60.55;37.67;;;1.40;98.30;;;;;;4173558;28;20241;-84
2021/12/08 00:32:59;;;;;;;56.22;35.65;;;1.40;98.30;;;;;;4164993;28;20297;-82
2021/12/08 00:35:04;;;;;;;56.03;35.00;;;1.40;98.30;;;;;;4165319;28;20215;-83
2021/12/08 00:37:07;;;;;;;56.17;36.13;;;1.30;98.30;;;;;;4165334;28;20235;-83
2021/12/08 00:39:12;;;;;;;56.75;36.33;;;1.40;98.30;;;;;;4164689;28;20223;-84
2021/12/08 00:41:16;;;;;;;53.30;34.60;;;1.40;98.30;;;;;;4164808;28;20211;-84
2021/12/08 00:43:21;;;;;;;54.67;34.70;;;1.50;98.30;;;;;;4164488;28;20214;-85
2021/12/08 00:45:25;;;;;;;57.53;38.00;;;1.40;98.30;;;;;;4165174;28;20543;-84
2021/12/08 00:47:28;;;;;;;55.58;35.30;;;1.50;98.30;;;;;;4163995;28;20215;-84
2021/12/08 00:49:32;;;;;;;55.17;35.30;;;1.40;98.30;;;;;;4164582;28;20207;-83
2021/12/08 00:51:36;;;;;;;55.28;35.70;;;1.50;98.30;;;;;;4164695;28;20205;-83
2021/12/08 00:53:39;;;;;;;53.53;35.65;;;1.40;98.30;;;;;;4164799;28;20217;-83
2021/12/08 00:55:42;;;;;;;53.30;35.28;;;1.50;98.30;;;;;;4164919;28;20246;-82
2021/12/08 00:57:45;;;;;;;59.67;35.40;;;1.60;98.30;;;;;;4164706;28;20225;-83
2021/12/08 00:59:48;;;;;;;59.88;36.22;;;1.50;98.30;;;;;;4160802;28;21795;-82
2021/12/08 01:02:05;;;;;;;55.40;34.15;;;1.50;98.30;;;;;;4159840;28;20237;-83
2021/12/08 01:04:09;;;;;;;55.50;36.42;;;1.50;98.30;;;;;;4164379;28;20217;-83
2021/12/08 01:06:22;;;;;;;56.15;34.45;;;1.50;98.30;;;;;;4160002;28;20276;-82
2021/12/08 01:08:32;;;;;;;55.95;35.00;;;1.50;98.30;;;;;;4163684;28;20265;-82
2021/12/08 01:10:36;;;;;;;52.63;34.05;;;1.60;98.30;;;;;;4164554;28;20195;-83
2021/12/08 01:12:39;;;;;;;52.45;32.10;;;1.50;98.30;;;;;;4164048;28;20207;-84
2021/12/08 01:14:42;;;;;;;53.17;33.55;;;1.50;98.30;;;;;;4164224;28;20219;-84
2021/12/08 01:16:46;;;;;;;50.15;34.35;;;1.60;98.30;;;;;;4164690;28;20256;-85
2021/12/08 01:18:49;;;;;;;54.13;33.88;;;1.60;98.30;;;;;;4172956;28;20642;-85
2021/12/08 01:20:54;;;;;;;52.63;34.00;;;1.60;98.30;;;;;;4165739;28;20226;-85
2021/12/08 01:22:57;;;;;;;54.03;34.03;;;1.60;98.30;;;;;;4165445;28;20235;-85
2021/12/08 01:25:04;;;;;;;56.03;34.55;;;1.60;98.30;;;;;;4166006;28;20214;-85
2021/12/08 01:27:07;;;;;;;53.15;31.95;;;1.60;98.30;;;;;;4170276;28;20297;-84
2021/12/08 01:29:10;;;;;;;55.13;34.03;;;1.60;98.30;;;;;;4175151;28;20206;-84
2021/12/08 01:31:14;;;;;;;52.40;33.03;;;1.50;98.30;;;;;;4169779;28;20868;-85
2021/12/08 01:33:17;;;;;;;55.00;34.13;;;1.50;98.30;;;;;;4162548;28;20207;-84
2021/12/08 01:35:21;;;;;;;50.80;32.15;;;1.60;98.30;;;;;;4166394;28;20238;-84
2021/12/08 01:37:24;;;;;;;51.58;35.70;;;1.60;98.30;;;;;;4173548;28;20215;-84
2021/12/08 01:39:27;;;;;;;57.70;36.50;;;1.70;98.30;;;;;;4165570;28;20574;-84
2021/12/08 01:41:31;;;;;;;53.47;33.30;;;1.70;98.30;;;;;;4166461;28;20609;-84
2021/12/08 01:43:43;;;;;;;51.78;32.83;;;1.70;98.30;;;;;;4158889;28;20682;-84
2021/12/08 01:45:57;;;;;;;43.25;30.52;;;1.70;98.30;;;;;;4162801;28;20227;-84
2021/12/08 01:48:02;;;;;;;45.97;30.92;;;1.70;98.30;;;;;;4167142;28;20206;-84
2021/12/08 01:50:07;;;;;;;50.20;30.83;;;1.60;98.30;;;;;;4166291;28;20205;-84
2021/12/08 01:52:10;;;;;;;48.35;32.40;;;1.70;98.30;;;;;;4166568;28;20222;-83
2021/12/08 01:54:13;;;;;;;49.63;31.52;;;1.70;98.30;;;;;;4167343;28;20217;-85
2021/12/08 01:56:17;;;;;;;49.17;30.33;;;1.70;98.30;;;;;;4166592;28;20237;-84
2021/12/08 01:58:22;;;;;;;51.17;32.20;;;1.70;98.30;;;;;;4163538;28;20219;-84
2021/12/08 02:00:30;;;;;;;50.08;32.17;;;1.70;98.30;;;;;;4165910;28;20250;-84
2021/12/08 02:02:33;;;;;;;55.15;33.90;;;1.70;98.30;;;;;;4166947;28;20213;-84
2021/12/08 02:04:36;;;;;;;54.97;32.08;;;1.70;98.30;;;;;;4167674;28;20689;-84
2021/12/08 02:06:46;;;;;;;46.25;30.27;;;1.80;98.30;;;;;;4168325;28;20307;-84
2021/12/08 02:08:52;;;;;;;44.25;30.88;;;1.80;98.30;;;;;;4176699;28;20225;-83
2021/12/08 02:10:58;;;;;;;50.83;32.83;;;1.80;98.30;;;;;;4167662;28;20207;-84
2021/12/08 02:13:01;;;;;;;46.58;33.22;;;1.80;98.30;;;;;;4166156;28;20207;-83
2021/12/08 02:15:08;;;;;;;47.97;31.48;;;1.90;98.30;;;;;;4165791;28;20549;-83
2021/12/08 02:17:11;;;;;;;57.55;33.90;;;1.80;98.30;;;;;;4165956;28;20242;-83
2021/12/08 02:19:14;;;;;;;49.20;32.20;;;1.80;98.30;;;;;;4166198;28;20210;-84
2021/12/08 02:21:27;;;;;;;50.08;32.67;;;1.80;98.30;;;;;;4152999;28;20311;-84
2021/12/08 02:23:31;;;;;;;45.70;30.20;;;1.80;98.30;;;;;;4158638;28;20203;-83
2021/12/08 02:25:35;;;;;;;44.47;30.80;;;1.90;98.30;;;;;;4166089;28;20229;-85
2021/12/08 02:27:38;;;;;;;45.50;30.05;;;1.90;98.30;;;;;;4166311;28;20299;-83
2021/12/08 02:29:48;;;;;;;48.45;30.92;;;1.90;98.30;;;;;;4164285;28;20218;-84
2021/12/08 02:31:58;;;;;;;51.47;33.42;;;1.90;98.30;;;;;;4166646;28;20290;-84
2021/12/08 02:48:20;;;;;;;40.40;28.42;;;2.00;98.30;;;;;;4165798;28;20237;-84
2021/12/08 02:50:25;;;;;;;40.58;27.83;;;2.10;98.30;;;;;;4166220;28;20211;-84
2021/12/08 02:52:29;;;;;;;47.45;32.03;;;2.10;98.30;;;;;;4150517;28;20218;-83
2021/12/08 02:54:39;;;;;;;40.38;28.50;;;2.10;98.30;;;;;;4159961;28;20679;-83
2021/12/08 02:56:42;;;;;;;37.92;25.95;;;2.10;98.30;;;;;;4166365;28;20226;-83
2021/12/08 02:58:45;;;;;;;37.72;25.23;;;2.10;98.30;;;;;;4167126;28;20225;-85
2021/12/08 03:00:51;;;;;;;35.53;25.27;;;2.10;98.30;;;;;;4165885;28;20241;-83
2021/12/08 03:02:56;;;;;;;38.22;24.65;;;2.20;98.30;;;;;;4165579;28;20749;-83
2021/12/08 03:04:59;;;;;;;41.22;26.55;;;2.10;98.30;;;;;;4162690;28;20208;-83
2021/12/08 03:07:03;;;;;;;36.42;25.65;;;2.10;98.30;;;;;;4161861;28;20238;-83
2021/12/08 03:09:08;;;;;;;38.95;25.98;;;2.20;98.30;;;;;;4166170;28;20211;-83
2021/12/08 03:11:11;;;;;;;36.85;25.65;;;2.10;98.30;;;;;;4151037;28;20218;-83
2021/12/08 03:13:14;;;;;;;36.10;24.30;;;2.10;98.30;;;;;;4165554;28;20218;-86
2021/12/08 03:15:19;;;;;;;38.38;25.23;;;2.20;98.30;;;;;;4167376;28;20233;-83
2021/12/08 03:17:22;;;;;;;34.90;25.02;;;2.20;98.30;;;;;;4165597;28;20234;-83
2021/12/08 03:19:26;;;;;;;35.58;24.55;;;2.20;98.30;;;;;;4165466;28;20202;-83
2021/12/08 03:21:30;;;;;;;38.28;26.35;;;2.20;98.30;;;;;;4154699;28;20242;-83
2021/12/08 03:23:45;;;;;;;35.40;24.70;;;2.20;98.30;;;;;;4169468;28;20207;-83
2021/12/08 03:25:55;;;;;;;35.70;25.13;;;2.20;98.30;;;;;;4171090;28;20232;-82
2021/12/08 03:28:12;;;;;;;33.78;24.05;;;2.20;98.30;;;;;;4165437;28;20207;-82
2021/12/08 03:30:22;;;;;;;38.35;25.60;;;2.20;98.30;;;;;;4165657;28;20589;-82
2021/12/08 03:32:32;;;;;;;32.22;24.38;;;2.20;98.30;;;;;;4165349;28;20212;-83
2021/12/08 03:34:40;;;;;;;33.72;23.67;;;2.20;98.30;;;;;;4165576;28;20612;-83
2021/12/08 03:36:43;;;;;;;35.90;26.15;;;2.20;98.30;;;;;;4165519;28;20230;-83
2021/12/08 03:38:46;;;;;;;35.15;25.60;;;2.20;98.30;;;;;;4160166;28;20225;-83
2021/12/08 03:40:51;;;;;;;34.85;23.13;;;2.20;98.30;;;;;;4165890;28;20302;-84
2021/12/08 03:42:57;;;;;;;36.72;24.63;;;2.20;98.30;;;;;;4165683;28;20219;-83
2021/12/08 03:45:02;;;;;;;37.10;24.35;;;2.20;98.30;;;;;;4166555;28;20240;-83
2021/12/08 03:47:14;;;;;;;40.35;25.30;;;2.20;98.30;;;;;;4165982;28;21039;-83
2021/12/08 03:49:19;;;;;;;36.83;25.58;;;2.20;98.30;;;;;;4165721;28;20544;-83
2021/12/08 03:51:22;;;;;;;34.90;23.83;;;2.20;98.30;;;;;;4177472;28;20566;-83
2021/12/08 03:53:25;;;;;;;39.20;26.08;;;2.20;98.30;;;;;;4168776;28;20214;-84
2021/12/08 03:55:29;;;;;;;36.97;24.40;;;2.20;98.30;;;;;;4168654;28;20240;-84
2021/12/08 03:57:35;;;;;;;36.53;25.33;;;2.20;98.30;;;;;;4164836;28;20224;-83
2021/12/08 03:59:38;;;;;;;35.05;24.15;;;2.20;98.30;;;;;;4168664;28;20211;-83
2021/12/08 04:01:41;;;;;;;35.85;24.95;;;2.10;98.30;;;;;;4168227;28;20219;-83
2021/12/08 04:03:49;;;;;;;35.85;26.73;;;2.10;98.30;;;;;;4159958;28;20651;-83
2021/12/08 04:06:02;;;;;;;35.80;23.98;;;2.10;98.30;;;;;;4165453;28;20309;-83
2021/12/08 04:08:14;;;;;;;35.92;24.92;;;2.20;98.30;;;;;;4170540;28;20218;-83
2021/12/08 04:10:19;;;;;;;35.35;22.95;;;2.10;98.30;;;;;;4170947;28;20249;-83
2021/12/08 04:12:22;;;;;;;35.75;25.50;;;2.10;98.30;;;;;;4170676;28;20207;-83
2021/12/08 04:14:30;;;;;;;42.97;23.98;;;2.10;98.30;;;;;;4169214;28;20220;-83
2021/12/08 04:16:38;;;;;;;33.75;24.35;;;2.20;98.30;;;;;;4169620;28;20686;-83
2021/12/08 04:18:41;;;;;;;45.63;28.15;;;2.10;98.30;;;;;;4179368;28;20214;-85
2021/12/08 04:20:47;;;;;;;36.33;24.67;;;2.10;98.30;;;;;;4172301;28;20265;-82
2021/12/08 04:23:08;;;;;;;39.10;27.17;;;2.10;98.30;;;;;;4168400;28;20211;-83
2021/12/08 04:25:17;;;;;;;38.33;26.17;;;2.10;98.30;;;;;;4166553;28;20217;-83
2021/12/08 04:27:25;;;;;;;35.40;23.85;;;2.10;98.30;;;;;;4167427;28;20226;-82
2021/12/08 04:29:33;;;;;;;35.88;24.50;;;2.20;98.30;;;;;;4167239;28;20217;-83
2021/12/08 04:31:38;;;;;;;37.15;25.77;;;2.10;98.30;;;;;;4167710;28;20205;-83
2021/12/08 04:33:41;;;;;;;37.50;25.55;;;2.10;98.30;;;;;;4166688;28;20234;-83
2021/12/08 04:35:46;;;;;;;37.80;24.75;;;2.10;98.30;;;;;;4163706;28;20235;-83
2021/12/08 04:37:53;;;;;;;34.53;24.85;;;2.20;98.30;;;;;;4164060;28;20218;-83
2021/12/08 04:40:20;;;;;;;35.22;23.65;;;2.10;98.30;;;;;;4167354;28;20297;-83
2021/12/08 04:42:37;;;;;;;36.50;24.73;;;2.20;98.30;;;;;;4157290;28;20238;-83
2021/12/08 04:44:47;;;;;;;38.97;25.25;;;2.10;98.30;;;;;;4161526;28;20207;-83
2021/12/08 04:47:14;;;;;;;32.90;24.17;;;2.10;98.30;;;;;;4166838;28;20245;-83
2021/12/08 04:49:35;;;;;;;40.72;25.38;;;2.10;98.30;;;;;;4157408;28;20560;-83
2021/12/08 04:51:48;;;;;;;36.30;23.23;;;2.20;98.30;;;;;;4155148;28;20569;-83
2021/12/08 05:00:12;;;;;;;38.53;25.60;;;2.20;98.30;;;;;;4165157;28;20202;-83
2021/12/08 05:01:28;;;;;;;36.92;23.90;;;2.10;98.30;;;;;;4166373;28;20207;-82
2021/12/08 05:03:43;;;;;;;37.60;25.13;;;2.00;98.30;;;;;;4165187;28;20191;-82
2021/12/08 05:06:05;;;;;;;37.40;25.13;;;2.00;98.30;;;;;;4174714;28;20238;-84
2021/12/08 05:08:13;;;;;;;33.50;25.20;;;1.90;98.30;;;;;;4171003;28;20223;-83
2021/12/08 05:10:20;;;;;;;36.85;26.25;;;1.90;98.30;;;;;;4159351;28;20597;-83
2021/12/08 05:12:26;;;;;;;38.83;26.58;;;1.80;98.30;;;;;;4167208;28;20576;-83
2021/12/08 05:14:33;;;;;;;36.95;27.33;;;1.80;98.30;;;;;;4167680;28;20310;-84
2021/12/08 05:16:39;;;;;;;38.97;27.63;;;1.70;98.30;;;;;;4170388;28;20230;-82
2021/12/08 05:18:45;;;;;;;41.08;28.50;;;1.70;98.30;;;;;;4166539;28;20217;-82
2021/12/08 05:20:51;;;;;;;39.67;27.60;;;1.70;98.30;;;;;;4166361;28;20607;-83
2021/12/08 05:23:15;;;;;;;38.28;26.77;;;1.70;98.30;;;;;;4170937;28;20318;-83
2021/12/08 05:25:25;;;;;;;35.58;27.67;;;1.60;98.30;;;;;;4164010;28;20199;-83
2021/12/08 05:27:33;;;;;;;47.15;30.38;;;1.60;98.30;;;;;;4167708;28;20613;-83
2021/12/08 05:29:39;;;;;;;38.97;26.58;;;1.60;98.30;;;;;;4167369;28;20222;-82
2021/12/08 05:31:44;;;;;;;40.13;28.05;;;1.50;98.30;;;;;;4167109;28;20221;-82
2021/12/08 05:33:48;;;;;;;40.28;27.10;;;1.50;98.30;;;;;;4176831;28;20202;-83
2021/12/08 05:36:00;;;;;;;38.00;27.52;;;1.50;98.30;;;;;;4170506;28;20227;-83
2021/12/08 05:38:03;;;;;;;41.72;28.92;;;1.50;98.30;;;;;;4167104;28;20208;-83
2021/12/08 05:40:17;;;;;;;40.30;27.63;;;1.50;98.30;;;;;;4167026;28;20225;-81
2021/12/08 05:42:23;;;;;;;43.03;27.10;;;1.50;98.30;;;;;;4167891;28;20586;-82
2021/12/08 05:44:26;;;;;;;39.28;28.45;;;1.40;98.30;;;;;;4167653;28;20203;-83
2021/12/08 05:46:33;;;;;;;39.65;29.63;;;1.50;98.30;;;;;;4166878;28;20230;-83
2021/12/08 05:48:38;;;;;;;40.50;28.98;;;1.50;98.30;;;;;;4167150;28;20207;-82
2021/12/08 05:50:47;;;;;;;42.92;29.80;;;1.50;98.30;;;;;;4167354;28;20209;-83
2021/12/08 05:52:52;;;;;;;43.05;28.63;;;1.50;98.30;;;;;;4167030;28;20210;-84
2021/12/08 05:54:55;;;;;;;45.03;30.10;;;1.50;98.30;;;;;;4169276;28;20237;-83
2021/12/08 05:57:02;;;;;;;42.17;30.35;;;1.50;98.30;;;;;;4167327;28;20449;-83
2021/12/08 05:59:07;;;;;;;43.35;30.80;;;1.50;98.30;;;;;;4167692;28;20215;-83
2021/12/08 06:01:13;;;;;;;44.60;30.60;;;1.50;98.30;;;;;;4167036;28;20213;-82
2021/12/08 06:03:17;;;;;;;45.42;29.63;;;1.50;98.30;;;;;;4167006;28;20214;-82
2021/12/08 06:05:23;;;;;;;40.72;29.45;;;1.40;98.30;;;;;;4167201;28;20207;-83
2021/12/08 06:07:27;;;;;;;45.10;28.42;;;1.40;98.30;;;;;;4160865;28;20264;-83
2021/12/08 06:09:32;;;;;;;45.63;31.15;;;1.50;98.30;;;;;;4167792;28;20206;-84
2021/12/08 06:11:36;;;;;;;43.03;30.10;;;1.40;98.30;;;;;;4168123;28;20213;-83
2021/12/08 06:13:50;;;;;;;46.63;31.75;;;1.50;98.30;;;;;;4153597;28;20217;-83
2021/12/08 06:15:53;;;;;;;40.67;28.90;;;1.40;98.30;;;;;;4166681;28;20230;-84
2021/12/08 06:17:56;;;;;;;47.30;31.58;;;1.40;98.30;;;;;;4167584;28;20191;-83
2021/12/08 06:20:00;;;;;;;39.83;28.60;;;1.40;98.30;;;;;;4168076;28;20211;-83
2021/12/08 06:22:06;;;;;;;49.00;32.63;;;1.30;98.30;;;;;;4167149;28;20211;-83
2021/12/08 06:24:15;;;;;;;41.78;30.83;;;1.30;98.30;;;;;;4168075;28;20721;-83
2021/12/08 06:26:21;;;;;;;52.65;31.20;;;1.30;98.30;;;;;;4167908;28;20321;-83
2021/12/08 06:28:26;;;;;;;43.97;31.00;;;1.40;98.30;;;;;;4177647;28;20582;-83
2021/12/08 06:30:33;;;;;;;47.13;32.42;;;1.30;98.30;;;;;;4179489;28;20215;-83
2021/12/08 06:32:37;;;;;;;50.08;33.33;;;1.30;98.30;;;;;;4166208;28;20705;-83
2021/12/08 06:34:43;;;;;;;45.00;32.05;;;1.20;98.30;;;;;;4165523;28;20225;-83
2021/12/08 06:36:51;;;;;;;51.35;33.75;;;1.30;98.30;;;;;;4163812;28;20608;-83
2021/12/08 06:38:56;;;;;;;52.28;33.42;;;1.30;98.30;;;;;;4163889;28;20233;-83
2021/12/08 06:41:04;;;;;;;51.33;33.53;;;1.30;98.30;;;;;;4168846;28;20202;-83
2021/12/08 06:43:15;;;;;;;52.55;33.88;;;1.30;98.30;;;;;;4173792;28;20226;-83
2021/12/08 06:45:21;;;;;;;49.25;33.63;;;1.30;98.30;;;;;;4168953;28;20576;-83
2021/12/08 06:47:28;;;;;;;51.28;34.45;;;1.30;98.30;;;;;;4161936;28;20226;-83
2021/12/08 06:49:32;;;;;;;49.55;31.98;;;1.30;98.30;;;;;;4165644;28;21039;-84
2021/12/08 06:51:39;;;;;;;50.97;33.42;;;1.20;98.30;;;;;;4165846;28;20755;-84
2021/12/08 06:53:44;;;;;;;50.97;34.55;;;1.20;98.30;;;;;;4165675;28;20210;-83
2021/12/08 06:55:55;;;;;;;49.92;33.00;;;1.20;98.30;;;;;;4165517;28;20223;-83
2021/12/08 06:58:10;;;;;;;49.10;33.30;;;1.20;98.30;;;;;;4162798;28;20594;-84
2021/12/08 07:00:22;;;;;;;51.90;34.70;;;1.30;98.30;;;;;;4165775;28;20296;-83
2021/12/08 07:02:52;;;;;;;50.45;35.67;;;1.30;98.30;;;;;;4166419;28;21075;-83
2021/12/08 07:05:10;;;;;;;50.42;35.33;;;1.30;98.30;;;;;;4164006;28;20256;-83
2021/12/08 07:07:17;;;;;;;50.38;35.35;;;1.30;98.30;;;;;;4170107;28;20365;-83
2021/12/08 07:09:24;;;;;;;51.08;35.83;;;1.30;98.30;;;;;;4163381;28;20298;-83
2021/12/08 07:11:29;;;;;;;49.90;33.30;;;1.30;98.30;;;;;;4166231;28;20222;-83
2021/12/08 07:13:36;;;;;;;52.85;35.10;;;1.30;98.30;;;;;;4162586;28;20206;-83
2021/12/08 07:16:03;;;;;;;48.50;32.65;;;1.30;98.30;;;;;;4157224;28;20235;-83
2021/12/08 07:18:09;;;;;;;50.90;33.75;;;1.20;98.30;;;;;;4164954;28;20202;-82
2021/12/08 07:20:28;;;;;;;44.95;32.67;;;1.30;98.30;;;;;;4165323;28;20233;-83
2021/12/08 07:22:36;;;;;;;48.22;34.97;;;1.20;98.30;;;;;;4158283;28;20234;-83
2021/12/08 07:24:41;;;;;;;48.75;33.80;;;1.30;98.30;;;;;;4163499;28;20643;-82
2021/12/08 07:26:49;;;;;;;48.85;34.85;;;1.30;98.30;;;;;;4164847;28;20230;-83
2021/12/08 07:28:53;;;;;;;50.58;34.40;;;1.30;98.30;;;;;;4165275;28;20217;-82
2021/12/08 07:30:59;;;;;;;49.50;35.90;;;1.40;98.30;;;;;;4169206;28;21038;-82
2021/12/08 07:33:03;;;;;;;49.33;33.40;;;1.40;98.30;;;;;;4166909;28;20213;-81
2021/12/08 07:35:12;;;;;;;44.80;32.92;;;1.40;98.30;;;;;;4170470;28;20211;-81
2021/12/08 07:37:19;;;;;;;49.45;33.35;;;1.40;98.30;;;;;;4175423;28;20226;-81
2021/12/08 07:39:27;;;;;;;49.30;33.35;;;1.40;98.30;;;;;;4166980;28;20313;-81
2021/12/08 07:41:33;;;;;;;50.33;33.20;;;1.40;98.30;;;;;;4163282;28;20206;-81
2021/12/08 07:43:47;;;;;;;59.85;40.40;;;1.40;98.30;;;;;;4167642;28;20763;-81
2021/12/08 07:45:56;;;;;;;48.65;31.92;;;1.40;98.30;;;;;;4164556;28;20475;-81
2021/12/08 07:48:02;;;;;;;47.15;33.33;;;1.40;98.30;;;;;;4169221;28;20480;-81
2021/12/08 07:50:09;;;;;;;45.47;32.22;;;1.40;98.30;;;;;;4171555;28;20255;-81
2021/12/08 07:52:15;;;;;;;46.92;32.30;;;1.40;98.30;;;;;;4164234;28;20864;-81
2021/12/08 07:54:19;;;;;;;49.00;33.78;;;1.40;98.30;;;;;;4166737;28;20190;-82
2021/12/08 07:59:00;;;;;;;48.75;30.67;;;1.40;98.30;;;;;;4149463;28;20717;-82
2021/12/08 08:01:07;;;;;;;46.33;32.33;;;1.40;98.30;;;;;;4163014;28;20214;-81
2021/12/08 08:03:12;;;;;;;49.60;36.05;;;1.40;98.30;;;;;;4174516;28;20207;-81
2021/12/08 08:05:17;;;;;;;47.90;34.60;;;1.40;98.30;;;;;;4166257;28;20268;-81
2021/12/08 08:07:21;;;;;;;51.13;34.35;;;1.40;98.30;;;;;;4166041;28;20702;-81
2021/12/08 08:09:27;;;;;;;46.47;32.25;;;1.40;98.30;;;;;;4167271;28;20546;-81
2021/12/08 08:11:33;;;;;;;45.90;32.38;;;1.40;98.30;;;;;;4166856;28;20214;-81
2021/12/08 08:13:36;;;;;;;47.17;33.75;;;1.40;98.30;;;;;;4163490;28;20215;-81
2021/12/08 08:15:48;;;;;;;48.95;32.72;;;1.40;98.30;;;;;;4161970;28;20215;-81
2021/12/08 08:17:53;;;;;;;46.78;32.75;;;1.40;98.30;;;;;;4166854;28;20249;-81
2021/12/08 08:19:56;;;;;;;44.88;31.60;;;1.40;98.30;;;;;;4177292;28;20321;-81
2021/12/08 08:22:05;;;;;;;46.55;33.00;;;1.40;98.30;;;;;;4167276;28;20238;-82
2021/12/08 08:24:08;;;;;;;46.08;33.05;;;1.50;98.30;;;;;;4165563;28;20218;-81
2021/12/08 08:26:13;;;;;;;47.85;34.13;;;1.50;98.30;;;;;;4165371;28;20242;-81
2021/12/08 08:28:17;;;;;;;44.60;32.08;;;1.50;98.30;;;;;;4164147;28;20212;-81
2021/12/08 08:30:23;;;;;;;45.75;32.45;;;1.50;98.30;;;;;;4163855;28;20604;-81
2021/12/08 08:32:34;;;;;;;44.67;32.08;;;1.50;98.30;;;;;;4166300;28;20214;-81
2021/12/08 08:34:42;;;;;;;42.28;32.67;;;1.50;98.30;;;;;;4166309;28;20213;-81
2021/12/08 08:36:47;;;;;;;45.72;30.70;;;1.50;98.30;;;;;;4166685;28;20288;-80
2021/12/08 08:38:54;;;;;;;51.45;34.75;;;1.50;98.30;;;;;;4168255;28;20213;-81
2021/12/08 08:41:04;;;;;;;43.42;32.03;;;1.50;98.30;;;;;;4167766;28;20222;-81
2021/12/08 08:43:09;;;;;;;47.15;33.70;;;1.50;98.30;;;;;;4164292;28;20241;-81
2021/12/08 08:45:19;;;;;;;44.53;31.17;;;1.50;98.30;;;;;;4168211;28;20432;-80
2021/12/08 08:47:27;;;;;;;41.92;31.65;;;1.50;98.30;;;;;;4163954;28;20230;-80
2021/12/08 08:49:33;;;;;;;44.47;32.55;;;1.50;98.30;;;;;;4164818;28;20206;-80
2021/12/08 08:51:40;;;;;;;45.97;33.55;;;1.60;98.30;;;;;;4164570;28;20219;-82
2021/12/08 08:53:48;;;;;;;42.58;31.83;;;1.60;98.30;;;;;;4162010;28;20207;-82
2021/12/08 08:55:54;;;;;;;42.03;30.10;;;1.50;98.30;;;;;;4165478;28;20222;-83
2021/12/08 08:57:57;;;;;;;44.80;32.67;;;1.50;98.30;;;;;;4158483;28;20583;-82
2021/12/08 09:00:06;;;;;;;46.92;31.63;;;1.60;98.30;;;;;;4159260;28;20294;-81
2021/12/08 09:02:12;;;;;;;37.88;29.50;;;1.60;98.30;;;;;;4171838;28;20224;-82
2021/12/08 09:04:18;;;;;;;42.63;30.60;;;1.60;98.30;;;;;;4177924;28;20223;-82
2021/12/08 09:06:26;;;;;;;42.45;29.65;;;1.60;98.30;;;;;;4174769;28;20231;-82
2021/12/08 09:08:33;;;;;;;43.58;31.45;;;1.50;98.30;;;;;;4170771;28;20202;-82
2021/12/08 09:10:41;;;;;;;44.22;30.95;;;1.60;98.30;;;;;;4170058;28;20252;-82
2021/12/08 09:12:48;;;;;;;39.47;30.38;;;1.60;98.30;;;;;;4171290;28;20584;-82
2021/12/08 09:14:54;;;;;;;45.83;32.15;;;1.70;98.30;;;;;;4163775;28;20659;-82
2021/12/08 09:17:00;;;;;;;41.22;30.23;;;1.70;98.30;;;;;;4166535;28;20242;-82
2021/12/08 09:19:13;;;;;;;43.70;31.77;;;1.70;98.30;;;;;;4169341;28;20261;-82
2021/12/08 09:21:21;;;;;;;41.55;30.73;;;1.70;98.30;;;;;;4166765;28;20209;-83
2021/12/08 09:23:30;;;;;;;41.38;29.73;;;1.70;98.30;;;;;;4163414;28;20206;-83
2021/12/08 09:25:38;;;;;;;42.95;29.95;;;1.70;98.30;;;;;;4165510;28;20214;-83
2021/12/08 09:27:44;;;;;;;42.05;29.88;;;1.70;98.30;;;;;;4166688;28;20261;-82
2021/12/08 09:29:55;;;;;;;41.03;29.45;;;1.70;98.30;;;;;;4163818;28;20213;-82
2021/12/08 09:32:04;;;;;;;41.25;30.38;;;1.80;98.30;;;;;;4166628;28;20667;-82
2021/12/08 09:34:12;;;;;;;41.72;29.30;;;1.80;98.30;;;;;;4164885;28;20564;-82
2021/12/08 09:36:19;;;;;;;39.72;29.67;;;1.80;98.30;;;;;;4160336;28;20226;-82
2021/12/08 09:38:29;;;;;;;40.60;29.30;;;1.80;98.30;;;;;;4164368;28;21097;-82
2021/12/08 09:40:37;;;;;;;38.38;28.08;;;1.80;98.30;;;;;;4165670;28;20206;-82
2021/12/08 09:42:44;;;;;;;43.80;31.80;;;1.80;98.30;;;;;;4164287;28;20752;-82
2021/12/08 09:44:49;;;;;;;44.42;30.67;;;1.80;98.30;;;;;;4165497;28;20215;-83
2021/12/08 09:46:54;;;;;;;39.60;28.80;;;1.80;98.30;;;;;;4166088;28;20590;-83
2021/12/08 09:48:57;;;;;;;43.40;29.85;;;1.80;98.30;;;;;;4174307;28;20315;-83
2021/12/08 09:51:01;;;;;;;42.25;29.35;;;1.90;98.30;;;;;;4162343;28;20215;-83
2021/12/08 09:53:06;;;;;;;38.15;27.80;;;1.90;98.30;;;;;;4164864;28;20211;-83
2021/12/08 09:55:13;;;;;;;45.10;31.45;;;1.90;98.30;;;;;;4165700;28;20206;-83
2021/12/08 09:57:17;;;;;;;40.05;29.33;;;1.90;98.30;;;;;;4169735;28;20241;-83
2021/12/08 09:59:21;;;;;;;36.35;28.05;;;1.90;98.30;;;;;;4168420;28;20211;-83
2021/12/08 10:01:25;;;;;;;38.55;27.15;;;1.90;98.30;;;;;;4165616;28;20211;-83
2021/12/08 10:03:29;;;;;;;36.10;28.60;;;2.00;98.30;;;;;;4165507;28;20245;-83
2021/12/08 10:05:34;;;;;;;42.72;29.77;;;1.90;98.30;;;;;;4165792;28;20222;-82
2021/12/08 10:07:40;;;;;;;37.72;30.35;;;2.00;98.30;;;;;;4169489;28;20711;-83
2021/12/08 10:09:43;;;;;;;38.15;27.83;;;2.00;98.30;;;;;;4167611;28;20218;-83
2021/12/08 10:11:49;;;;;;;38.05;27.83;;;2.00;98.30;;;;;;4165665;28;20217;-83
2021/12/08 10:13:57;;;;;;;41.97;28.73;;;2.00;98.30;;;;;;4171095;28;20292;-83
2021/12/08 10:16:01;;;;;;;40.25;30.38;;;2.00;98.30;;;;;;4166690;28;20227;-83
2021/12/08 10:18:05;;;;;;;36.83;28.13;;;2.00;98.30;;;;;;4158392;28;20210;-84
2021/12/08 10:20:12;;;;;;;40.15;28.08;;;2.10;98.30;;;;;;4164432;28;20297;-83
2021/12/08 10:22:20;;;;;;;39.40;28.35;;;2.00;98.30;;;;;;4161641;28;20677;-83
2021/12/08 10:24:25;;;;;;;32.97;26.98;;;2.10;98.30;;;;;;4165559;28;20216;-83
2021/12/08 10:26:34;;;;;;;37.22;27.60;;;2.10;98.30;;;;;;4164857;28;20233;-83
2021/12/08 10:28:40;;;;;;;36.05;27.48;;;2.10;98.30;;;;;;4164644;28;20194;-86
2021/12/08 10:30:47;;;;;;;35.92;27.23;;;2.10;98.30;;;;;;4163162;28;20206;-84
2021/12/08 10:32:53;;;;;;;33.80;26.85;;;2.20;98.30;;;;;;4180015;28;20213;-86
2021/12/08 10:35:05;;;;;;;32.88;26.70;;;2.10;98.30;;;;;;4166549;28;20282;-82
2021/12/08 10:37:10;;;;;;;36.28;26.05;;;2.20;98.30;;;;;;4165768;28;20326;-83
2021/12/08 10:39:18;;;;;;;37.35;28.00;;;2.20;98.30;;;;;;4156992;28;20468;-84
2021/12/08 10:41:21;;;;;;;37.80;26.38;;;2.20;98.30;;;;;;4165400;28;20563;-83
2021/12/08 10:43:24;;;;;;;31.35;25.63;;;2.20;98.30;;;;;;4165118;28;20207;-83
2021/12/08 10:45:31;;;;;;;31.73;23.90;;;2.30;98.30;;;;;;4151544;28;20235;-83
2021/12/08 10:47:36;;;;;;;33.85;25.63;;;2.20;98.30;;;;;;4154866;28;20970;-83
2021/12/08 10:54:37;;;;;;;36.28;27.17;;;2.30;98.30;;;;;;4161142;28;20202;-84
2021/12/08 10:56:41;;;;;;;32.10;24.70;;;2.30;98.30;;;;;;4163888;28;20229;-83
2021/12/08 10:59:06;;;;;;;32.10;24.08;;;2.30;98.30;;;;;;4157437;28;20227;-83
2021/12/08 11:01:38;;;;;;;35.05;24.25;;;2.30;98.30;;;;;;4166924;28;20210;-83
2021/12/08 11:03:43;;;;;;;32.20;23.65;;;2.40;98.30;;;;;;4164357;28;20245;-82
2021/12/08 11:05:50;;;;;;;33.25;24.70;;;2.40;98.30;;;;;;4161472;28;20288;-83
2021/12/08 11:07:59;;;;;;;30.52;23.88;;;2.40;98.30;;;;;;4160033;28;20265;-83
2021/12/08 11:10:19;;;;;;;29.88;23.75;;;2.40;98.30;;;;;;4159479;28;20560;-85
2021/12/08 11:12:22;;;;;;;35.63;25.75;;;2.40;98.30;;;;;;4165489;28;20289;-83
2021/12/08 11:14:27;;;;;;;28.67;23.42;;;2.40;98.30;;;;;;4164665;28;20305;-83
2021/12/08 11:16:34;;;;;;;33.42;25.77;;;2.40;98.30;;;;;;4155862;28;20647;-82
2021/12/08 11:18:39;;;;;;;30.55;23.77;;;2.40;98.30;;;;;;4163040;28;20696;-83
2021/12/08 11:20:58;;;;;;;30.05;23.92;;;2.40;98.30;;;;;;4162251;28;20624;-83